sensor_id;sensor_type;location;lat;lon;timestamp;noise_LAeq;noise_LA_min;noise_LA_max;noise_LA01;noise_LA95
76217;Laerm;65010;50.190;18.930;2023-03-14T00:00:45;36.10;34.92;44.18;;
76217;Laerm;65010;50.190;18.930;2023-03-14T00:03:54;36.21;34.87;39.43;;
76217;Laerm;65010;50.190;18.930;2023-03-14T00:07:03;36.36;34.97;37.64;;
76217;Laerm;65010;50.190;18.930;2023-03-14T00:10:13;36.22;34.66;42.58;;
76217;Laerm;65010;50.190;18.930;2023-03-14T00:13:20;36.29;34.89;45.07;;
76217;Laerm;65010;50.190;18.930;2023-03-14T00:16:27;36.22;34.92;45.81;;
76217;Laerm;65010;50.190;18.930;2023-03-14T00:19:35;36.19;34.94;41.88;;
76217;Laerm;65010;50.190;18.930;2023-03-14T00:22:42;36.39;34.88;39.58;;
76217;Laerm;65010;50.190;18.930;2023-03-14T00:25:48;37.04;35.14;43.32;;
76217;Laerm;65010;50.190;18.930;2023-03-14T00:28:56;36.16;34.96;42.71;;
76217;Laerm;65010;50.190;18.930;2023-03-14T00:32:02;36.20;35.05;39.61;;
76217;Laerm;65010;50.190;18.930;2023-03-14T00:35:11;36.47;35.01;49.55;;
76217;Laerm;65010;50.190;18.930;2023-03-14T00:38:20;36.45;35.03;48.05;;
76217;Laerm;65010;50.190;18.930;2023-03-14T00:41:27;36.31;34.96;42.14;;
76217;Laerm;65010;50.190;18.930;2023-03-14T00:44:36;36.26;34.95;43.29;;
76217;Laerm;65010;50.190;18.930;2023-03-14T00:47:43;36.20;34.95;38.12;;
76217;Laerm;65010;50.190;18.930;2023-03-14T00:50:52;36.30;35.17;44.88;;
76217;Laerm;65010;50.190;18.930;2023-03-14T00:54:00;36.21;34.95;37.85;;
76217;Laerm;65010;50.190;18.930;2023-03-14T00:57:06;36.24;34.61;49.64;;
76217;Laerm;65010;50.190;18.930;2023-03-14T01:00:14;36.16;35.04;39.27;;
76217;Laerm;65010;50.190;18.930;2023-03-14T01:03:20;36.17;34.93;44.50;;
76217;Laerm;65010;50.190;18.930;2023-03-14T01:06:30;36.32;34.83;50.35;;
76217;Laerm;65010;50.190;18.930;2023-03-14T01:09:36;35.55;34.20;48.13;;
76217;Laerm;65010;50.190;18.930;2023-03-14T01:12:42;35.44;34.21;45.28;;
76217;Laerm;65010;50.190;18.930;2023-03-14T01:15:48;35.32;34.05;44.32;;
76217;Laerm;65010;50.190;18.930;2023-03-14T01:18:55;35.27;33.97;45.78;;
76217;Laerm;65010;50.190;18.930;2023-03-14T01:22:05;35.17;33.98;44.61;;
76217;Laerm;65010;50.190;18.930;2023-03-14T01:25:15;35.18;34.01;36.53;;
76217;Laerm;65010;50.190;18.930;2023-03-14T01:28:22;35.19;34.03;36.88;;
76217;Laerm;65010;50.190;18.930;2023-03-14T01:31:29;35.19;33.95;40.52;;
76217;Laerm;65010;50.190;18.930;2023-03-14T01:34:35;36.10;34.06;37.85;;
76217;Laerm;65010;50.190;18.930;2023-03-14T01:37:44;35.91;34.30;43.29;;
76217;Laerm;65010;50.190;18.930;2023-03-14T01:40:55;35.53;34.24;40.61;;
76217;Laerm;65010;50.190;18.930;2023-03-14T01:44:02;35.75;34.51;39.74;;
76217;Laerm;65010;50.190;18.930;2023-03-14T01:47:08;35.66;34.37;36.84;;
76217;Laerm;65010;50.190;18.930;2023-03-14T01:50:15;35.90;34.53;51.36;;
76217;Laerm;65010;50.190;18.930;2023-03-14T01:53:25;35.70;34.40;37.24;;
76217;Laerm;65010;50.190;18.930;2023-03-14T01:56:32;35.72;34.46;37.10;;
76217;Laerm;65010;50.190;18.930;2023-03-14T01:59:46;37.43;34.77;53.79;;
76217;Laerm;65010;50.190;18.930;2023-03-14T02:03:00;37.96;34.78;50.32;;
76217;Laerm;65010;50.190;18.930;2023-03-14T02:06:12;35.88;34.76;37.67;;
76217;Laerm;65010;50.190;18.930;2023-03-14T02:09:26;36.06;34.79;39.93;;
76217;Laerm;65010;50.190;18.930;2023-03-14T02:12:35;36.11;34.95;45.13;;
76217;Laerm;65010;50.190;18.930;2023-03-14T02:16:02;35.91;34.26;40.71;;
76217;Laerm;65010;50.190;18.930;2023-03-14T02:19:48;35.61;34.29;39.83;;
76217;Laerm;65010;50.190;18.930;2023-03-14T02:23:07;35.44;34.22;41.29;;
76217;Laerm;65010;50.190;18.930;2023-03-14T02:26:26;35.83;34.01;46.43;;
76217;Laerm;65010;50.190;18.930;2023-03-14T02:29:47;40.93;33.83;62.89;;
76217;Laerm;65010;50.190;18.930;2023-03-14T02:33:01;35.21;33.88;38.33;;
76217;Laerm;65010;50.190;18.930;2023-03-14T02:36:14;35.38;34.09;38.98;;
76217;Laerm;65010;50.190;18.930;2023-03-14T02:39:32;35.80;34.36;37.27;;
76217;Laerm;65010;50.190;18.930;2023-03-14T02:42:43;35.88;34.59;38.11;;
76217;Laerm;65010;50.190;18.930;2023-03-14T02:45:53;35.91;34.71;41.16;;
76217;Laerm;65010;50.190;18.930;2023-03-14T02:49:05;35.80;34.53;37.02;;
76217;Laerm;65010;50.190;18.930;2023-03-14T02:52:13;35.80;34.66;41.65;;
76217;Laerm;65010;50.190;18.930;2023-03-14T02:55:21;35.91;34.79;44.04;;
76217;Laerm;65010;50.190;18.930;2023-03-14T02:58:31;36.77;34.42;55.86;;
76217;Laerm;65010;50.190;18.930;2023-03-14T03:01:49;36.02;34.72;42.64;;
76217;Laerm;65010;50.190;18.930;2023-03-14T03:04:55;36.22;35.02;37.59;;
76217;Laerm;65010;50.190;18.930;2023-03-14T03:08:02;36.10;35.01;37.69;;
76217;Laerm;65010;50.190;18.930;2023-03-14T03:11:08;35.74;34.23;42.43;;
76217;Laerm;65010;50.190;18.930;2023-03-14T03:14:15;35.52;34.21;37.91;;
76217;Laerm;65010;50.190;18.930;2023-03-14T03:17:24;35.66;34.15;44.51;;
76217;Laerm;65010;50.190;18.930;2023-03-14T03:20:31;35.52;34.10;37.06;;
76217;Laerm;65010;50.190;18.930;2023-03-14T03:23:37;35.47;34.26;36.70;;
76217;Laerm;65010;50.190;18.930;2023-03-14T03:26:43;36.07;34.31;39.32;;
76217;Laerm;65010;50.190;18.930;2023-03-14T03:29:49;41.50;34.89;61.26;;
76217;Laerm;65010;50.190;18.930;2023-03-14T03:32:58;36.40;34.90;48.15;;
76217;Laerm;65010;50.190;18.930;2023-03-14T03:36:06;36.23;34.55;47.10;;
76217;Laerm;65010;50.190;18.930;2023-03-14T03:39:15;36.15;34.81;38.35;;
76217;Laerm;65010;50.190;18.930;2023-03-14T03:42:24;36.48;34.73;49.82;;
76217;Laerm;65010;50.190;18.930;2023-03-14T03:45:32;36.05;34.42;47.54;;
76217;Laerm;65010;50.190;18.930;2023-03-14T03:48:43;35.71;34.21;47.55;;
76217;Laerm;65010;50.190;18.930;2023-03-14T03:51:49;36.59;34.44;42.58;;
76217;Laerm;65010;50.190;18.930;2023-03-14T03:54:55;36.21;34.82;38.14;;
76217;Laerm;65010;50.190;18.930;2023-03-14T03:58:05;37.76;34.83;49.68;;
76217;Laerm;65010;50.190;18.930;2023-03-14T04:01:11;36.70;35.11;38.90;;
76217;Laerm;65010;50.190;18.930;2023-03-14T04:04:23;36.91;35.36;49.93;;
76217;Laerm;65010;50.190;18.930;2023-03-14T04:07:31;40.06;35.10;57.90;;
76217;Laerm;65010;50.190;18.930;2023-03-14T04:10:42;35.75;34.40;42.08;;
76217;Laerm;65010;50.190;18.930;2023-03-14T04:13:56;35.77;34.24;52.87;;
76217;Laerm;65010;50.190;18.930;2023-03-14T04:17:04;40.91;34.48;61.00;;
76217;Laerm;65010;50.190;18.930;2023-03-14T04:20:17;40.15;35.21;59.39;;
76217;Laerm;65010;50.190;18.930;2023-03-14T04:23:25;36.58;35.10;43.36;;
76217;Laerm;65010;50.190;18.930;2023-03-14T04:26:31;36.95;35.07;43.62;;
76217;Laerm;65010;50.190;18.930;2023-03-14T04:29:38;44.17;35.23;65.03;;
76217;Laerm;65010;50.190;18.930;2023-03-14T04:32:44;39.64;35.15;55.62;;
76217;Laerm;65010;50.190;18.930;2023-03-14T04:35:56;37.22;35.23;45.17;;
76217;Laerm;65010;50.190;18.930;2023-03-14T04:39:02;37.00;35.28;45.81;;
76217;Laerm;65010;50.190;18.930;2023-03-14T04:42:13;44.53;35.40;66.03;;
76217;Laerm;65010;50.190;18.930;2023-03-14T04:45:19;43.35;34.75;60.94;;
76217;Laerm;65010;50.190;18.930;2023-03-14T04:48:27;42.01;35.13;62.83;;
76217;Laerm;65010;50.190;18.930;2023-03-14T04:51:36;40.46;34.93;58.97;;
76217;Laerm;65010;50.190;18.930;2023-03-14T04:54:45;41.66;35.10;60.89;;
76217;Laerm;65010;50.190;18.930;2023-03-14T04:57:52;42.82;35.16;64.60;;
76217;Laerm;65010;50.190;18.930;2023-03-14T05:01:03;47.63;35.33;67.04;;
76217;Laerm;65010;50.190;18.930;2023-03-14T05:04:17;39.88;34.80;56.57;;
76217;Laerm;65010;50.190;18.930;2023-03-14T05:07:45;40.40;34.77;57.94;;
76217;Laerm;65010;50.190;18.930;2023-03-14T05:11:10;43.00;36.01;58.04;;
76217;Laerm;65010;50.190;18.930;2023-03-14T05:14:36;43.70;36.13;65.85;;
76217;Laerm;65010;50.190;18.930;2023-03-14T05:18:00;46.82;36.02;66.94;;
76217;Laerm;65010;50.190;18.930;2023-03-14T05:21:31;46.06;36.91;65.60;;
76217;Laerm;65010;50.190;18.930;2023-03-14T05:24:58;45.87;36.51;63.61;;
76217;Laerm;65010;50.190;18.930;2023-03-14T05:28:27;48.91;36.46;70.80;;
76217;Laerm;65010;50.190;18.930;2023-03-14T05:31:44;46.15;36.61;68.59;;
76217;Laerm;65010;50.190;18.930;2023-03-14T05:35:20;45.03;36.77;62.31;;
76217;Laerm;65010;50.190;18.930;2023-03-14T05:38:46;48.97;36.62;64.95;;
76217;Laerm;65010;50.190;18.930;2023-03-14T05:42:15;46.65;36.75;68.03;;
76217;Laerm;65010;50.190;18.930;2023-03-14T05:45:47;48.91;36.91;66.21;;
76217;Laerm;65010;50.190;18.930;2023-03-14T05:49:15;49.11;37.21;67.98;;
76217;Laerm;65010;50.190;18.930;2023-03-14T05:52:41;49.38;37.09;66.66;;
76217;Laerm;65010;50.190;18.930;2023-03-14T05:56:23;48.29;35.74;68.20;;
76217;Laerm;65010;50.190;18.930;2023-03-14T05:59:43;50.86;35.31;64.51;;
76217;Laerm;65010;50.190;18.930;2023-03-14T06:03:21;52.87;36.18;68.75;;
76217;Laerm;65010;50.190;18.930;2023-03-14T06:06:27;52.47;36.80;66.08;;
76217;Laerm;65010;50.190;18.930;2023-03-14T06:09:36;50.91;36.81;65.09;;
76217;Laerm;65010;50.190;18.930;2023-03-14T06:12:45;48.67;36.90;71.07;;
76217;Laerm;65010;50.190;18.930;2023-03-14T06:15:54;50.51;36.75;66.01;;
76217;Laerm;65010;50.190;18.930;2023-03-14T06:19:00;47.88;36.60;64.98;;
76217;Laerm;65010;50.190;18.930;2023-03-14T06:22:07;43.09;36.25;62.92;;
76217;Laerm;65010;50.190;18.930;2023-03-14T06:25:14;46.78;36.41;66.57;;
76217;Laerm;65010;50.190;18.930;2023-03-14T06:28:23;48.03;36.28;68.25;;
76217;Laerm;65010;50.190;18.930;2023-03-14T06:31:36;48.33;35.79;66.80;;
76217;Laerm;65010;50.190;18.930;2023-03-14T06:34:43;49.79;35.64;65.23;;
76217;Laerm;65010;50.190;18.930;2023-03-14T06:37:51;52.11;35.83;66.01;;
76217;Laerm;65010;50.190;18.930;2023-03-14T06:41:03;52.45;35.59;67.55;;
76217;Laerm;65010;50.190;18.930;2023-03-14T06:44:16;48.22;36.93;63.79;;
76217;Laerm;65010;50.190;18.930;2023-03-14T06:47:25;51.93;37.34;66.85;;
76217;Laerm;65010;50.190;18.930;2023-03-14T06:50:32;50.80;36.87;65.04;;
76217;Laerm;65010;50.190;18.930;2023-03-14T06:53:41;50.50;37.25;64.96;;
76217;Laerm;65010;50.190;18.930;2023-03-14T06:56:52;51.48;36.86;65.00;;
76217;Laerm;65010;50.190;18.930;2023-03-14T06:59:58;50.94;37.14;68.99;;
76217;Laerm;65010;50.190;18.930;2023-03-14T07:03:08;44.81;36.87;60.58;;
76217;Laerm;65010;50.190;18.930;2023-03-14T07:06:17;48.16;37.17;65.55;;
76217;Laerm;65010;50.190;18.930;2023-03-14T07:09:24;45.95;36.01;62.99;;
76217;Laerm;65010;50.190;18.930;2023-03-14T07:12:34;50.02;35.68;67.40;;
76217;Laerm;65010;50.190;18.930;2023-03-14T07:15:40;49.83;35.71;65.28;;
76217;Laerm;65010;50.190;18.930;2023-03-14T07:18:50;48.46;35.52;65.81;;
76217;Laerm;65010;50.190;18.930;2023-03-14T07:21:56;48.27;36.03;63.92;;
76217;Laerm;65010;50.190;18.930;2023-03-14T07:25:05;47.23;36.76;64.33;;
76217;Laerm;65010;50.190;18.930;2023-03-14T07:28:12;44.47;36.76;62.92;;
76217;Laerm;65010;50.190;18.930;2023-03-14T07:31:21;50.57;36.54;69.40;;
76217;Laerm;65010;50.190;18.930;2023-03-14T07:34:33;48.05;36.79;61.50;;
76217;Laerm;65010;50.190;18.930;2023-03-14T07:37:42;47.12;36.74;63.93;;
76217;Laerm;65010;50.190;18.930;2023-03-14T07:40:50;46.62;36.55;64.25;;
76217;Laerm;65010;50.190;18.930;2023-03-14T07:43:56;51.36;36.67;66.17;;
76217;Laerm;65010;50.190;18.930;2023-03-14T07:47:02;48.88;36.13;62.65;;
76217;Laerm;65010;50.190;18.930;2023-03-14T07:50:12;47.47;35.67;65.46;;
76217;Laerm;65010;50.190;18.930;2023-03-14T07:53:18;40.70;35.66;56.54;;
76217;Laerm;65010;50.190;18.930;2023-03-14T07:56:25;44.74;35.77;62.13;;
76217;Laerm;65010;50.190;18.930;2023-03-14T07:59:31;49.31;35.63;66.47;;
76217;Laerm;65010;50.190;18.930;2023-03-14T08:02:37;48.65;37.17;63.69;;
76217;Laerm;65010;50.190;18.930;2023-03-14T08:05:48;45.67;37.07;64.50;;
76217;Laerm;65010;50.190;18.930;2023-03-14T08:08:55;46.69;37.10;59.83;;
76217;Laerm;65010;50.190;18.930;2023-03-14T08:12:00;39.91;36.82;55.19;;
76217;Laerm;65010;50.190;18.930;2023-03-14T08:15:08;45.12;36.69;65.59;;
76217;Laerm;65010;50.190;18.930;2023-03-14T08:18:16;46.18;36.66;65.24;;
76217;Laerm;65010;50.190;18.930;2023-03-14T08:21:25;41.29;36.93;61.38;;
76217;Laerm;65010;50.190;18.930;2023-03-14T08:24:31;38.56;35.66;49.93;;
76217;Laerm;65010;50.190;18.930;2023-03-14T08:27:38;44.46;35.47;61.22;;
76217;Laerm;65010;50.190;18.930;2023-03-14T08:30:45;47.54;36.26;66.99;;
76217;Laerm;65010;50.190;18.930;2023-03-14T08:33:52;48.87;35.36;63.37;;
76217;Laerm;65010;50.190;18.930;2023-03-14T08:37:00;48.99;37.28;66.11;;
76217;Laerm;65010;50.190;18.930;2023-03-14T08:40:19;48.93;36.56;65.40;;
76217;Laerm;65010;50.190;18.930;2023-03-14T08:43:25;47.88;37.00;61.80;;
76217;Laerm;65010;50.190;18.930;2023-03-14T08:46:32;39.25;36.53;49.33;;
76217;Laerm;65010;50.190;18.930;2023-03-14T08:49:42;39.43;36.85;48.73;;
76217;Laerm;65010;50.190;18.930;2023-03-14T08:52:52;44.38;36.61;61.84;;
76217;Laerm;65010;50.190;18.930;2023-03-14T08:56:00;48.14;36.59;63.24;;
76217;Laerm;65010;50.190;18.930;2023-03-14T08:59:07;43.04;35.72;62.30;;
76217;Laerm;65010;50.190;18.930;2023-03-14T09:02:16;39.04;35.69;55.40;;
76217;Laerm;65010;50.190;18.930;2023-03-14T09:05:23;38.80;35.35;52.65;;
76217;Laerm;65010;50.190;18.930;2023-03-14T09:08:32;46.12;35.54;64.12;;
76217;Laerm;65010;50.190;18.930;2023-03-14T09:11:42;48.39;35.89;65.95;;
76217;Laerm;65010;50.190;18.930;2023-03-14T09:14:48;47.18;37.36;65.15;;
76217;Laerm;65010;50.190;18.930;2023-03-14T09:17:57;43.57;36.85;60.85;;
76217;Laerm;65010;50.190;18.930;2023-03-14T09:21:06;49.14;36.69;64.68;;
76217;Laerm;65010;50.190;18.930;2023-03-14T09:24:16;49.14;36.12;68.76;;
76217;Laerm;65010;50.190;18.930;2023-03-14T09:27:22;44.44;35.45;63.76;;
76217;Laerm;65010;50.190;18.930;2023-03-14T09:30:29;50.56;35.30;69.68;;
76217;Laerm;65010;50.190;18.930;2023-03-14T09:33:35;47.18;36.90;63.51;;
76217;Laerm;65010;50.190;18.930;2023-03-14T09:36:42;44.66;37.90;65.34;;
76217;Laerm;65010;50.190;18.930;2023-03-14T09:39:52;47.62;37.80;63.96;;
76217;Laerm;65010;50.190;18.930;2023-03-14T09:42:58;40.89;37.69;49.40;;
76217;Laerm;65010;50.190;18.930;2023-03-14T09:46:07;44.75;37.58;61.31;;
76217;Laerm;65010;50.190;18.930;2023-03-14T09:49:22;54.11;37.00;70.96;;
76217;Laerm;65010;50.190;18.930;2023-03-14T09:52:35;44.12;36.59;62.64;;
76217;Laerm;65010;50.190;18.930;2023-03-14T09:55:50;45.93;36.96;61.48;;
76217;Laerm;65010;50.190;18.930;2023-03-14T09:59:00;45.17;35.67;62.51;;
76217;Laerm;65010;50.190;18.930;2023-03-14T10:02:17;46.93;35.67;69.84;;
76217;Laerm;65010;50.190;18.930;2023-03-14T10:05:26;45.04;35.75;61.44;;
76217;Laerm;65010;50.190;18.930;2023-03-14T10:08:33;46.85;36.05;63.81;;
76217;Laerm;65010;50.190;18.930;2023-03-14T10:11:42;46.74;36.88;63.35;;
76217;Laerm;65010;50.190;18.930;2023-03-14T10:14:52;47.51;36.96;67.12;;
76217;Laerm;65010;50.190;18.930;2023-03-14T10:18:01;48.55;37.00;65.80;;
76217;Laerm;65010;50.190;18.930;2023-03-14T10:21:26;47.41;37.27;63.33;;
76217;Laerm;65010;50.190;18.930;2023-03-14T10:24:34;50.07;36.53;68.05;;
76217;Laerm;65010;50.190;18.930;2023-03-14T10:27:44;46.67;36.57;66.58;;
76217;Laerm;65010;50.190;18.930;2023-03-14T10:30:50;46.93;36.77;65.71;;
76217;Laerm;65010;50.190;18.930;2023-03-14T10:34:00;44.84;35.40;61.43;;
76217;Laerm;65010;50.190;18.930;2023-03-14T10:37:18;47.99;35.65;62.54;;
76217;Laerm;65010;50.190;18.930;2023-03-14T10:40:33;48.38;35.48;61.85;;
76217;Laerm;65010;50.190;18.930;2023-03-14T10:43:45;42.76;35.39;61.04;;
76217;Laerm;65010;50.190;18.930;2023-03-14T10:47:02;43.74;36.65;62.75;;
76217;Laerm;65010;50.190;18.930;2023-03-14T10:50:27;48.42;36.49;66.83;;
76217;Laerm;65010;50.190;18.930;2023-03-14T10:53:42;49.38;37.05;64.41;;
76217;Laerm;65010;50.190;18.930;2023-03-14T10:56:57;45.08;37.05;60.48;;
76217;Laerm;65010;50.190;18.930;2023-03-14T11:00:17;44.66;36.55;61.16;;
76217;Laerm;65010;50.190;18.930;2023-03-14T11:03:31;45.55;36.97;61.63;;
76217;Laerm;65010;50.190;18.930;2023-03-14T11:06:48;46.70;36.88;64.60;;
76217;Laerm;65010;50.190;18.930;2023-03-14T11:10:08;46.86;35.84;65.78;;
76217;Laerm;65010;50.190;18.930;2023-03-14T11:13:26;47.34;36.29;62.92;;
76217;Laerm;65010;50.190;18.930;2023-03-14T11:16:53;38.74;35.38;51.76;;
76217;Laerm;65010;50.190;18.930;2023-03-14T11:20:31;41.28;35.44;59.61;;
76217;Laerm;65010;50.190;18.930;2023-03-14T11:23:52;47.06;36.75;62.79;;
76217;Laerm;65010;50.190;18.930;2023-03-14T11:27:17;42.71;36.18;61.28;;
76217;Laerm;65010;50.190;18.930;2023-03-14T11:30:35;46.11;36.44;65.99;;
76217;Laerm;65010;50.190;18.930;2023-03-14T11:34:01;45.35;36.11;62.09;;
76217;Laerm;65010;50.190;18.930;2023-03-14T11:37:23;44.52;36.64;61.35;;
76217;Laerm;65010;50.190;18.930;2023-03-14T11:40:34;45.99;36.69;61.08;;
76217;Laerm;65010;50.190;18.930;2023-03-14T11:43:47;44.17;37.50;58.87;;
76217;Laerm;65010;50.190;18.930;2023-03-14T11:47:06;48.67;37.37;65.85;;
76217;Laerm;65010;50.190;18.930;2023-03-14T11:50:24;45.51;37.42;63.69;;
76217;Laerm;65010;50.190;18.930;2023-03-14T11:53:48;46.34;37.83;63.08;;
76217;Laerm;65010;50.190;18.930;2023-03-14T11:57:02;40.75;36.19;56.01;;
76217;Laerm;65010;50.190;18.930;2023-03-14T12:00:18;47.42;36.33;64.85;;
76217;Laerm;65010;50.190;18.930;2023-03-14T12:03:35;46.02;36.16;62.03;;
76217;Laerm;65010;50.190;18.930;2023-03-14T12:06:50;47.65;36.81;62.35;;
76217;Laerm;65010;50.190;18.930;2023-03-14T12:09:57;47.72;37.69;63.11;;
76217;Laerm;65010;50.190;18.930;2023-03-14T12:13:04;45.08;37.55;62.75;;
76217;Laerm;65010;50.190;18.930;2023-03-14T12:16:41;49.41;37.68;63.65;;
76217;Laerm;65010;50.190;18.930;2023-03-14T12:20:11;43.27;37.21;57.82;;
76217;Laerm;65010;50.190;18.930;2023-03-14T12:23:26;47.10;37.34;64.33;;
76217;Laerm;65010;50.190;18.930;2023-03-14T12:26:52;41.38;37.01;57.79;;
76217;Laerm;65010;50.190;18.930;2023-03-14T12:30:00;47.96;37.43;63.56;;
76217;Laerm;65010;50.190;18.930;2023-03-14T12:33:32;47.83;36.22;63.71;;
76217;Laerm;65010;50.190;18.930;2023-03-14T12:36:59;47.25;36.86;63.36;;
76217;Laerm;65010;50.190;18.930;2023-03-14T12:40:21;47.13;36.36;62.23;;
76217;Laerm;65010;50.190;18.930;2023-03-14T12:43:34;43.64;36.25;61.22;;
76217;Laerm;65010;50.190;18.930;2023-03-14T12:46:44;44.39;36.54;62.60;;
76217;Laerm;65010;50.190;18.930;2023-03-14T12:49:54;47.06;37.19;61.77;;
76217;Laerm;65010;50.190;18.930;2023-03-14T12:57:28;47.61;37.02;64.67;;
76217;Laerm;65010;50.190;18.930;2023-03-14T13:00:42;44.46;37.20;59.60;;
76217;Laerm;65010;50.190;18.930;2023-03-14T13:03:54;47.16;37.00;65.19;;
76217;Laerm;65010;50.190;18.930;2023-03-14T13:07:03;46.68;37.45;63.27;;
76217;Laerm;65010;50.190;18.930;2023-03-14T13:10:21;46.06;37.28;62.48;;
76217;Laerm;65010;50.190;18.930;2023-03-14T13:13:37;49.32;36.18;64.13;;
76217;Laerm;65010;50.190;18.930;2023-03-14T13:16:49;45.97;36.08;62.04;;
76217;Laerm;65010;50.190;18.930;2023-03-14T13:20:02;49.24;36.12;63.69;;
76217;Laerm;65010;50.190;18.930;2023-03-14T13:23:21;48.54;35.95;65.56;;
76217;Laerm;65010;50.190;18.930;2023-03-14T13:26:35;50.57;36.86;68.44;;
76217;Laerm;65010;50.190;18.930;2023-03-14T13:29:44;45.25;36.98;58.26;;
76217;Laerm;65010;50.190;18.930;2023-03-14T13:32:54;44.84;36.70;60.93;;
76217;Laerm;65010;50.190;18.930;2023-03-14T13:36:04;49.26;36.50;67.51;;
76217;Laerm;65010;50.190;18.930;2023-03-14T13:39:17;46.87;36.33;67.55;;
76217;Laerm;65010;50.190;18.930;2023-03-14T13:42:28;45.60;36.29;61.30;;
76217;Laerm;65010;50.190;18.930;2023-03-14T13:45:52;47.40;36.15;65.47;;
76217;Laerm;65010;50.190;18.930;2023-03-14T13:49:02;43.31;36.33;59.50;;
76217;Laerm;65010;50.190;18.930;2023-03-14T13:52:25;47.85;36.01;64.07;;
76217;Laerm;65010;50.190;18.930;2023-03-14T13:55:33;43.26;35.45;58.87;;
76217;Laerm;65010;50.190;18.930;2023-03-14T13:58:41;46.29;35.02;66.20;;
76217;Laerm;65010;50.190;18.930;2023-03-14T14:01:52;46.56;35.24;64.89;;
76217;Laerm;65010;50.190;18.930;2023-03-14T14:05:01;50.31;36.57;64.62;;
76217;Laerm;65010;50.190;18.930;2023-03-14T14:08:11;45.94;36.92;65.48;;
76217;Laerm;65010;50.190;18.930;2023-03-14T14:11:40;48.37;36.76;64.30;;
76217;Laerm;65010;50.190;18.930;2023-03-14T14:15:11;50.12;37.16;65.98;;
76217;Laerm;65010;50.190;18.930;2023-03-14T14:18:27;44.89;36.64;59.91;;
76217;Laerm;65010;50.190;18.930;2023-03-14T14:21:34;49.58;36.89;65.26;;
76217;Laerm;65010;50.190;18.930;2023-03-14T14:24:41;49.69;36.55;70.11;;
76217;Laerm;65010;50.190;18.930;2023-03-14T14:27:49;50.68;36.58;71.31;;
76217;Laerm;65010;50.190;18.930;2023-03-14T14:31:03;48.55;35.71;63.55;;
76217;Laerm;65010;50.190;18.930;2023-03-14T14:34:20;48.14;35.62;63.21;;
76217;Laerm;65010;50.190;18.930;2023-03-14T14:37:34;45.18;35.32;61.13;;
76217;Laerm;65010;50.190;18.930;2023-03-14T14:40:49;50.48;36.60;67.50;;
76217;Laerm;65010;50.190;18.930;2023-03-14T14:43:59;47.27;36.91;61.87;;
76217;Laerm;65010;50.190;18.930;2023-03-14T14:47:06;50.22;36.81;67.39;;
76217;Laerm;65010;50.190;18.930;2023-03-14T14:50:31;47.30;36.82;64.95;;
76217;Laerm;65010;50.190;18.930;2023-03-14T14:53:41;42.90;36.90;61.88;;
76217;Laerm;65010;50.190;18.930;2023-03-14T14:56:51;45.73;36.67;62.83;;
76217;Laerm;65010;50.190;18.930;2023-03-14T15:00:04;44.43;36.58;61.97;;
76217;Laerm;65010;50.190;18.930;2023-03-14T15:03:15;47.43;36.96;62.32;;
76217;Laerm;65010;50.190;18.930;2023-03-14T15:06:30;47.03;36.18;63.77;;
76217;Laerm;65010;50.190;18.930;2023-03-14T15:09:37;49.58;35.41;64.44;;
76217;Laerm;65010;50.190;18.930;2023-03-14T15:12:43;45.90;35.84;62.39;;
76217;Laerm;65010;50.190;18.930;2023-03-14T15:15:51;48.14;35.90;62.36;;
76217;Laerm;65010;50.190;18.930;2023-03-14T15:19:05;49.06;37.35;62.41;;
76217;Laerm;65010;50.190;18.930;2023-03-14T15:22:29;46.73;36.95;61.96;;
76217;Laerm;65010;50.190;18.930;2023-03-14T15:25:37;47.45;36.90;61.75;;
76217;Laerm;65010;50.190;18.930;2023-03-14T15:28:58;45.30;36.89;62.85;;
76217;Laerm;65010;50.190;18.930;2023-03-14T15:32:05;47.51;36.84;60.04;;
76217;Laerm;65010;50.190;18.930;2023-03-14T15:35:11;47.60;36.91;64.77;;
76217;Laerm;65010;50.190;18.930;2023-03-14T15:38:22;46.76;36.43;67.55;;
76217;Laerm;65010;50.190;18.930;2023-03-14T15:41:29;47.99;35.75;71.67;;
76217;Laerm;65010;50.190;18.930;2023-03-14T15:44:35;50.60;36.06;74.05;;
76217;Laerm;65010;50.190;18.930;2023-03-14T15:47:42;48.41;35.93;63.72;;
76217;Laerm;65010;50.190;18.930;2023-03-14T15:50:48;48.67;35.96;66.65;;
76217;Laerm;65010;50.190;18.930;2023-03-14T15:53:59;46.88;36.25;64.48;;
76217;Laerm;65010;50.190;18.930;2023-03-14T15:57:05;48.07;36.83;71.02;;
76217;Laerm;65010;50.190;18.930;2023-03-14T16:00:15;46.49;36.73;64.11;;
76217;Laerm;65010;50.190;18.930;2023-03-14T16:03:24;47.22;36.73;64.00;;
76217;Laerm;65010;50.190;18.930;2023-03-14T16:06:31;49.11;37.20;67.23;;
76217;Laerm;65010;50.190;18.930;2023-03-14T16:09:40;45.45;36.97;66.01;;
76217;Laerm;65010;50.190;18.930;2023-03-14T16:12:48;46.11;36.76;60.15;;
76217;Laerm;65010;50.190;18.930;2023-03-14T16:15:55;48.74;36.89;65.77;;
76217;Laerm;65010;50.190;18.930;2023-03-14T16:19:06;44.16;35.81;61.46;;
76217;Laerm;65010;50.190;18.930;2023-03-14T16:22:13;37.11;35.52;45.15;;
76217;Laerm;65010;50.190;18.930;2023-03-14T16:25:22;42.62;35.46;59.94;;
76217;Laerm;65010;50.190;18.930;2023-03-14T16:28:28;44.92;35.68;63.96;;
76217;Laerm;65010;50.190;18.930;2023-03-14T16:31:34;42.49;35.76;60.61;;
76217;Laerm;65010;50.190;18.930;2023-03-14T16:34:45;46.00;36.86;63.68;;
76217;Laerm;65010;50.190;18.930;2023-03-14T16:37:52;41.79;36.86;56.67;;
76217;Laerm;65010;50.190;18.930;2023-03-14T16:41:04;45.57;36.82;65.32;;
76217;Laerm;65010;50.190;18.930;2023-03-14T16:44:11;50.16;36.96;68.74;;
76217;Laerm;65010;50.190;18.930;2023-03-14T16:47:22;45.57;36.82;58.65;;
76217;Laerm;65010;50.190;18.930;2023-03-14T16:50:29;49.05;36.68;63.52;;
76217;Laerm;65010;50.190;18.930;2023-03-14T16:53:35;48.71;35.24;63.06;;
76217;Laerm;65010;50.190;18.930;2023-03-14T16:56:44;46.11;35.24;62.29;;
76217;Laerm;65010;50.190;18.930;2023-03-14T16:59:51;45.79;36.08;63.78;;
76217;Laerm;65010;50.190;18.930;2023-03-14T17:02:58;47.28;36.40;62.32;;
76217;Laerm;65010;50.190;18.930;2023-03-14T17:06:10;46.98;36.01;64.54;;
76217;Laerm;65010;50.190;18.930;2023-03-14T17:09:17;48.35;36.59;61.42;;
76217;Laerm;65010;50.190;18.930;2023-03-14T17:12:26;46.77;36.37;68.05;;
76217;Laerm;65010;50.190;18.930;2023-03-14T17:15:33;44.35;36.18;63.87;;
76217;Laerm;65010;50.190;18.930;2023-03-14T17:18:39;44.98;35.97;64.08;;
76217;Laerm;65010;50.190;18.930;2023-03-14T17:21:46;44.30;35.69;61.86;;
76217;Laerm;65010;50.190;18.930;2023-03-14T17:24:55;59.19;36.16;77.51;;
76217;Laerm;65010;50.190;18.930;2023-03-14T17:28:10;45.41;35.22;66.64;;
76217;Laerm;65010;50.190;18.930;2023-03-14T17:31:21;48.22;35.17;60.86;;
76217;Laerm;65010;50.190;18.930;2023-03-14T17:34:33;46.54;35.43;63.86;;
76217;Laerm;65010;50.190;18.930;2023-03-14T17:37:39;49.24;35.51;67.20;;
76217;Laerm;65010;50.190;18.930;2023-03-14T17:40:47;43.99;36.46;58.72;;